Time;durP1;ratioP1;P1;durP2;ratioP2;P2;SDS_P1;SDS_P2;PMS_P1;PMS_P2;Temp;Humidity;BMP_temperature;BMP_pressure;BME280_temperature;BME280_humidity;BME280_pressure;Samples;Min_cycle;Max_cycle;Signal;HPM_P1;HPM_P2
2023/01/03 00:01:11;;;;;;;48.22;13.30;;;;;;;4.31;100.00;99537.97;4438953;32;20808;-73
2023/01/03 00:03:39;;;;;;;36.17;12.18;;;;;;;4.38;100.00;99542.75;4439006;32;20144;-73
2023/01/03 00:06:15;;;;;;;119.57;14.18;;;;;;;4.14;100.00;99544.84;4425131;32;20157;-73
2023/01/03 00:08:42;;;;;;;87.70;13.57;;;;;;;3.83;100.00;99554.16;4437437;32;20439;-73
2023/01/03 00:11:14;;;;;;;119.35;12.98;;;;;;;3.52;100.00;99557.38;4423190;32;20101;-73
2023/01/03 00:13:42;;;;;;;72.95;14.15;;;;;;;3.50;100.00;99551.44;4423307;32;20094;-73
2023/01/03 00:16:19;;;;;;;60.03;13.45;;;;;;;3.64;100.00;99553.34;4423614;32;20094;-73
2023/01/03 00:18:46;;;;;;;51.28;13.02;;;;;;;3.77;100.00;99557.03;4423489;32;20086;-73
2023/01/03 00:21:13;;;;;;;97.40;15.88;;;;;;;4.00;100.00;99558.50;4427541;32;20202;-73
2023/01/03 00:23:41;;;;;;;66.60;14.87;;;;;;;4.17;100.00;99560.25;4438671;32;20583;-73
2023/01/03 00:26:14;;;;;;;65.35;16.00;;;;;;;4.33;100.00;99562.06;4438602;32;20148;-73
2023/01/03 00:28:42;;;;;;;51.05;15.00;;;;;;;4.46;100.00;99559.69;4438626;32;20081;-73
2023/01/03 00:31:11;;;;;;;42.65;15.63;;;;;;;4.40;100.00;99558.25;4438782;32;20165;-73
2023/01/03 00:33:39;;;;;;;35.40;13.60;;;;;;;4.25;100.00;99555.53;4438599;32;20136;-73
2023/01/03 00:36:08;;;;;;;44.00;14.77;;;;;;;4.30;100.00;99560.47;4438763;32;20161;-73
2023/01/03 00:38:36;;;;;;;39.95;15.30;;;;;;;4.22;100.00;99557.41;4438718;32;20082;-73
2023/01/03 00:41:04;;;;;;;45.20;15.52;;;;;;;4.21;100.00;99555.72;4438706;32;20167;-73
2023/01/03 00:43:32;;;;;;;79.87;21.67;;;;;;;4.26;100.00;99554.59;4438600;32;20567;-72
2023/01/03 00:45:59;;;;;;;56.70;15.50;;;;;;;4.29;100.00;99556.19;4438797;32;20090;-73
2023/01/03 00:48:27;;;;;;;70.35;15.23;;;;;;;4.28;100.00;99556.28;4438721;32;20120;-73
2023/01/03 00:50:54;;;;;;;54.70;15.15;;;;;;;4.40;100.00;99559.06;4438523;32;20117;-73
2023/01/03 00:53:22;;;;;;;88.47;16.67;;;;;;;4.31;100.00;99556.12;4438579;32;20251;-73
2023/01/03 00:55:49;;;;;;;123.45;16.73;;;;;;;4.39;100.00;99560.00;4438369;32;20160;-72
2023/01/03 00:58:17;;;;;;;92.40;17.95;;;;;;;4.27;100.00;99560.63;4438583;32;20505;-72
2023/01/03 01:00:44;;;;;;;42.10;15.48;;;;;;;4.24;100.00;99553.84;4438558;32;20097;-72
2023/01/03 01:03:11;;;;;;;86.28;16.35;;;;;;;4.37;100.00;99568.78;4438641;32;20093;-73
2023/01/03 01:05:38;;;;;;;62.60;14.57;;;;;;;4.42;100.00;99565.03;4438608;32;20097;-72
2023/01/03 01:08:05;;;;;;;93.40;18.92;;;;;;;4.59;100.00;99571.12;4438479;32;20106;-72
2023/01/03 01:10:32;;;;;;;62.72;16.95;;;;;;;4.75;100.00;99572.00;4425469;32;20471;-73
2023/01/03 01:13:00;;;;;;;92.37;18.80;;;;;;;4.90;100.00;99562.53;4423076;32;20497;-73
2023/01/03 01:15:27;;;;;;;90.78;18.52;;;;;;;5.03;100.00;99567.13;4423033;32;20078;-73
2023/01/03 01:17:54;;;;;;;72.65;17.90;;;;;;;5.14;100.00;99568.19;4423285;32;20123;-73
2023/01/03 01:20:22;;;;;;;49.63;15.48;;;;;;;5.22;100.00;99570.38;4422989;32;20094;-72
2023/01/03 01:22:49;;;;;;;58.15;16.98;;;;;;;5.25;100.00;99574.56;4436740;32;20488;-72
2023/01/03 01:25:16;;;;;;;51.53;17.05;;;;;;;5.29;100.00;99583.88;4423725;32;20167;-72
2023/01/03 01:27:43;;;;;;;52.58;15.48;;;;;;;5.35;100.00;99585.31;4438557;32;20090;-72
2023/01/03 01:30:10;;;;;;;47.97;16.08;;;;;;;5.31;100.00;99584.63;4438497;32;20150;-73
2023/01/03 01:32:37;;;;;;;62.28;15.32;;;;;;;5.32;100.00;99581.13;4438467;32;20101;-72
2023/01/03 01:35:05;;;;;;;49.42;16.00;;;;;;;5.39;100.00;99576.41;4438285;32;20753;-72
2023/01/03 01:37:32;;;;;;;49.78;15.02;;;;;;;5.43;100.00;99573.56;4438607;32;20471;-73
2023/01/03 01:39:59;;;;;;;42.95;15.07;;;;;;;5.46;100.00;99572.56;4438308;32;20165;-72
2023/01/03 01:45:13;;;;;;;40.20;14.30;;;;;;;5.53;100.00;99568.69;4438310;32;20103;-72
2023/01/03 01:47:58;;;;;;;45.45;13.98;;;;;;;5.56;100.00;99570.31;4438090;32;20097;-72
2023/01/03 01:50:31;;;;;;;;;;;;;;;5.50;100.00;99564.50;4424610;32;20124;-72
2023/01/03 01:53:10;;;;;;;41.28;11.98;;;;;;;5.46;100.00;99557.78;4438425;32;19997;-72
2023/01/03 01:55:41;;;;;;;38.88;14.05;;;;;;;5.48;100.00;99560.31;4424043;32;20090;-72
2023/01/03 01:58:10;;;;;;;31.05;12.75;;;;;;;5.43;100.00;99564.94;4438350;32;20112;-72
2023/01/03 02:00:39;;;;;;;32.83;12.35;;;;;;;5.45;100.00;99576.94;4424238;32;20509;-73
2023/01/03 02:03:06;;;;;;;35.83;13.60;;;;;;;5.45;100.00;99587.31;4424215;32;20167;-72
2023/01/03 02:05:36;;;;;;;32.75;12.77;;;;;;;5.47;100.00;99584.63;4438169;32;20089;-72
2023/01/03 02:08:04;;;;;;;40.17;11.70;;;;;;;5.53;100.00;99586.91;4424098;32;20166;-72
2023/01/03 02:11:07;;;;;;;35.17;11.82;;;;;;;5.53;100.00;99592.09;4424974;32;20106;-72
2023/01/03 02:13:53;;;;;;;56.00;11.20;;;;;;;5.60;100.00;99589.97;4422389;32;20812;-72
2023/01/03 02:16:47;;;;;;;32.88;11.32;;;;;;;5.49;100.00;99593.19;4422414;32;20078;-72
2023/01/03 02:19:33;;;;;;;30.58;11.50;;;;;;;5.41;100.00;99590.16;4332713;33;20756;-72
2023/01/03 02:22:11;;;;;;;36.97;10.95;;;;;;;5.46;100.00;99588.16;4353544;32;20111;-72
2023/01/03 02:24:48;;;;;;;25.60;10.55;;;;;;;5.40;100.00;99599.72;4359377;32;20087;-72
2023/01/03 02:27:45;;;;;;;34.78;11.93;;;;;;;5.35;100.00;99599.13;4359500;32;20131;-72
2023/01/03 02:30:28;;;;;;;56.97;11.88;;;;;;;5.36;100.00;99595.63;4359430;32;20878;-72
2023/01/03 02:33:17;;;;;;;40.00;12.52;;;;;;;5.41;100.00;99590.16;4359680;32;20174;-72
2023/01/03 02:35:58;;;;;;;63.85;12.90;;;;;;;5.51;100.00;99589.56;4348234;32;20161;-72
2023/01/03 02:38:27;;;;;;;45.85;12.00;;;;;;;5.46;100.00;99588.97;4349117;32;20091;-72
2023/01/03 02:41:19;;;;;;;88.82;15.38;;;;;;;5.56;100.00;99597.13;4361317;32;20173;-72
2023/01/03 02:43:50;;;;;;;156.30;17.62;;;;;;;5.44;100.00;99588.22;4361364;32;20119;-72
2023/01/03 02:46:30;;;;;;;160.27;16.58;;;;;;;5.46;100.00;99596.78;4361196;32;20123;-72
2023/01/03 02:49:03;;;;;;;262.48;19.25;;;;;;;5.33;100.00;99591.41;4361284;32;20095;-71
2023/01/03 02:51:32;;;;;;;202.15;17.23;;;;;;;5.19;100.00;99595.69;4348799;32;20598;-71
2023/01/03 02:54:01;;;;;;;133.82;15.93;;;;;;;5.20;100.00;99584.38;4361137;32;20596;-72
2023/01/03 02:56:32;;;;;;;80.65;13.30;;;;;;;5.31;100.00;99585.47;4403831;32;20105;-72
2023/01/03 02:59:04;;;;;;;135.02;15.70;;;;;;;5.32;100.00;99588.91;4425515;32;20611;-72
2023/01/03 03:01:33;;;;;;;107.25;13.00;;;;;;;5.43;100.00;99589.16;4412854;32;20093;-72
2023/01/03 03:04:01;;;;;;;114.47;16.85;;;;;;;5.52;100.00;99593.00;4425545;32;20423;-72
2023/01/03 03:06:34;;;;;;;85.87;16.70;;;;;;;5.45;100.00;99602.06;4425254;32;20101;-72
2023/01/03 03:09:02;;;;;;;91.12;14.25;;;;;;;5.45;100.00;99602.06;4422186;32;20085;-72
2023/01/03 03:14:24;;;;;;;45.28;12.43;;;;;;;5.49;100.00;99596.59;4412118;32;20505;-72
2023/01/03 03:16:55;;;;;;;51.95;12.45;;;;;;;5.56;100.00;99601.50;4410055;32;20404;-72
2023/01/03 03:25:33;;;;;;;47.90;12.25;;;;;;;5.90;100.00;99604.78;4438738;32;20159;-71
2023/01/03 03:30:56;;;;;;;51.70;12.68;;;;;;;5.93;100.00;99609.81;4427420;32;20089;-71
2023/01/03 03:33:25;;;;;;;40.80;12.73;;;;;;;6.03;100.00;99596.22;4425222;32;20102;-71
2023/01/03 03:35:56;;;;;;;59.50;13.40;;;;;;;6.08;100.00;99595.97;4425017;32;20114;-71
2023/01/03 03:38:49;;;;;;;57.72;12.73;;;;;;;6.11;100.00;99603.59;4425227;32;20097;-71
2023/01/03 03:47:33;;;;;;;47.05;11.75;;;;;;;6.20;100.00;99610.88;4438315;32;20085;-71
2023/01/03 03:50:23;;;;;;;43.55;12.32;;;;;;;6.32;100.00;99611.09;4439191;32;20117;-71
2023/01/03 03:52:58;;;;;;;41.33;11.65;;;;;;;6.42;100.00;99609.66;4375656;32;20317;-71
2023/01/03 03:55:46;;;;;;;50.38;12.95;;;;;;;6.47;100.00;99611.97;4375443;32;20106;-71
2023/01/03 03:58:22;;;;;;;41.65;13.43;;;;;;;6.47;100.00;99611.97;4375832;32;20457;-71
2023/01/03 04:00:51;;;;;;;47.35;13.95;;;;;;;6.53;100.00;99612.44;4363279;32;20113;-71
2023/01/03 04:03:20;;;;;;;47.00;13.98;;;;;;;6.60;100.00;99602.53;4376022;32;20709;-71
2023/01/03 04:05:52;;;;;;;37.72;12.18;;;;;;;6.57;100.00;99619.16;4350963;32;20141;-72
2023/01/03 04:08:19;;;;;;;46.30;13.38;;;;;;;6.62;100.00;99620.66;4375716;32;20172;-71
2023/01/03 04:10:46;;;;;;;45.67;14.15;;;;;;;6.66;100.00;99611.72;4361559;32;20177;-71
2023/01/03 04:13:13;;;;;;;37.72;12.15;;;;;;;6.63;100.00;99617.09;4360607;32;20695;-71
2023/01/03 04:15:41;;;;;;;46.58;13.95;;;;;;;6.62;100.00;99618.88;4360877;32;20114;-71
2023/01/03 04:18:10;;;;;;;42.55;13.90;;;;;;;6.69;100.00;99621.94;4360623;32;20161;-71
2023/01/03 04:20:37;;;;;;;33.70;12.88;;;;;;;6.61;100.00;99624.16;4360909;32;20582;-71
2023/01/03 04:23:05;;;;;;;43.05;13.73;;;;;;;6.64;100.00;99624.81;4375607;32;20533;-70
2023/01/03 04:25:32;;;;;;;54.85;14.87;;;;;;;6.61;100.00;99632.81;4375179;32;20142;-71
2023/01/03 04:27:59;;;;;;;47.80;15.07;;;;;;;6.62;100.00;99641.47;4375768;32;20484;-71
2023/01/03 04:30:27;;;;;;;58.10;14.77;;;;;;;6.64;100.00;99631.81;4417890;32;20097;-71
2023/01/03 04:32:55;;;;;;;56.75;14.00;;;;;;;6.62;100.00;99633.66;4438785;32;20093;-71
2023/01/03 04:35:22;;;;;;;48.45;12.32;;;;;;;6.59;100.00;99626.03;4438833;32;20113;-71
2023/01/03 04:37:49;;;;;;;52.62;12.80;;;;;;;6.62;100.00;99631.06;4438721;32;20105;-71
2023/01/03 04:40:16;;;;;;;44.22;13.77;;;;;;;6.59;100.00;99641.66;4438751;32;20085;-71
2023/01/03 04:45:29;;;;;;;35.35;11.75;;;;;;;6.64;100.00;99642.22;4438778;32;20381;-71
2023/01/03 04:47:56;;;;;;;39.50;13.32;;;;;;;6.52;100.00;99644.59;4438809;32;20155;-71
2023/01/03 04:50:23;;;;;;;43.15;14.18;;;;;;;6.43;100.00;99655.53;4438596;32;20089;-71
2023/01/03 04:52:51;;;;;;;29.58;12.10;;;;;;;6.29;100.00;99645.09;4438440;32;20093;-71
2023/01/03 04:55:18;;;;;;;30.35;13.88;;;;;;;6.31;100.00;99646.66;4438443;32;20120;-71
2023/01/03 04:57:45;;;;;;;35.63;14.60;;;;;;;6.35;100.00;99649.97;4438592;32;20101;-71
2023/01/03 05:00:13;;;;;;;36.75;14.40;;;;;;;6.20;100.00;99659.47;4438617;32;20119;-71
2023/01/03 05:02:40;;;;;;;34.38;13.82;;;;;;;6.25;100.00;99657.44;4438501;32;20147;-71
2023/01/03 05:05:08;;;;;;;35.17;13.62;;;;;;;6.16;100.00;99645.81;4438619;32;20112;-72
2023/01/03 05:07:35;;;;;;;31.37;13.13;;;;;;;6.18;100.00;99649.16;4438731;32;20102;-71
2023/01/03 05:10:03;;;;;;;37.13;13.38;;;;;;;6.24;100.00;99640.16;4428656;32;20124;-71
2023/01/03 05:12:30;;;;;;;32.22;13.38;;;;;;;6.28;100.00;99648.63;4422964;32;20110;-71
2023/01/03 05:14:57;;;;;;;32.85;12.60;;;;;;;6.26;100.00;99646.12;4422967;32;20093;-71
2023/01/03 05:17:24;;;;;;;32.17;12.98;;;;;;;6.24;100.00;99647.12;4422932;32;20151;-71
2023/01/03 05:28:09;;;;;;;30.88;12.82;;;;;;;6.36;100.00;99649.87;4438292;32;20094;-71
2023/01/03 05:30:43;;;;;;;36.83;14.05;;;;;;;6.40;100.00;99658.31;4438465;32;20473;-71
2023/01/03 05:33:10;;;;;;;30.33;13.32;;;;;;;6.37;100.00;99661.09;4438473;32;20102;-71
2023/01/03 05:35:37;;;;;;;35.67;14.77;;;;;;;6.18;100.00;99667.38;4438266;32;20085;-71
2023/01/03 05:38:04;;;;;;;81.55;15.52;;;;;;;6.14;100.00;99668.47;4438206;32;20232;-71
2023/01/03 05:40:32;;;;;;;216.10;22.87;;;;;;;5.93;100.00;99677.44;4438251;32;20529;-71
2023/01/03 05:43:07;;;;;;;95.40;13.75;;;;;;;5.82;100.00;99678.03;4438452;32;20184;-71
2023/01/03 05:45:35;;;;;;;29.20;13.68;;;;;;;5.72;100.00;99682.88;4438230;32;20124;-71
2023/01/03 05:48:03;;;;;;;33.03;12.32;;;;;;;5.76;100.00;99684.41;4437895;32;20115;-71
2023/01/03 05:50:31;;;;;;;37.33;13.25;;;;;;;5.83;100.00;99690.13;4438096;32;20097;-72
2023/01/03 05:52:59;;;;;;;55.10;14.02;;;;;;;5.92;100.00;99692.22;4438027;32;20090;-72
2023/01/03 05:55:26;;;;;;;77.37;14.38;;;;;;;5.86;100.00;99695.97;4437863;32;20819;-72
2023/01/03 05:57:53;;;;;;;51.42;12.90;;;;;;;5.77;100.00;99691.28;4438295;32;20123;-72
2023/01/03 06:00:20;;;;;;;60.65;13.43;;;;;;;5.80;100.00;99696.31;4438021;32;20145;-72
2023/01/03 06:02:48;;;;;;;90.50;15.80;;;;;;;5.80;100.00;99693.72;4437760;32;20574;-72
2023/01/03 06:05:15;;;;;;;217.05;18.50;;;;;;;5.75;100.00;99694.88;4437887;32;20093;-72
2023/01/03 06:07:42;;;;;;;266.42;23.05;;;;;;;5.64;100.00;99698.91;4437749;32;20410;-71
2023/01/03 06:10:10;;;;;;;231.00;18.12;;;;;;;5.51;100.00;99703.94;4426605;32;20105;-72
2023/01/03 06:12:37;;;;;;;201.07;18.55;;;;;;;5.48;100.00;99711.03;4422549;32;20537;-72
2023/01/03 06:15:05;;;;;;;159.00;16.12;;;;;;;5.53;100.00;99718.59;4422499;32;20105;-71
2023/01/03 06:20:18;;;;;;;209.48;17.95;;;;;;;5.57;100.00;99717.50;4422821;32;20128;-71
2023/01/03 06:22:45;;;;;;;224.90;17.35;;;;;;;5.60;100.00;99723.41;4435885;32;20101;-72
2023/01/03 06:25:12;;;;;;;230.87;19.70;;;;;;;5.64;100.00;99724.91;4437211;32;20152;-72
2023/01/03 06:27:39;;;;;;;229.43;17.40;;;;;;;5.59;100.00;99723.47;4437537;32;20128;-72
2023/01/03 06:30:08;;;;;;;313.12;23.20;;;;;;;5.57;100.00;99720.97;4437393;32;20177;-72
2023/01/03 06:32:35;;;;;;;344.98;24.67;;;;;;;5.52;100.00;99722.94;4437401;32;20085;-72
2023/01/03 06:35:03;;;;;;;317.73;20.85;;;;;;;5.54;100.00;99728.06;4437447;32;20171;-72
2023/01/03 06:37:30;;;;;;;310.25;23.55;;;;;;;5.58;100.00;99730.41;4437198;32;20478;-72
2023/01/03 06:39:57;;;;;;;414.92;28.75;;;;;;;5.51;100.00;99729.06;4437369;32;20089;-73
2023/01/03 06:42:41;;;;;;;364.63;22.55;;;;;;;5.53;100.00;99728.97;4437055;32;20109;-73
2023/01/03 06:53:32;;;;;;;375.23;33.92;;;;;;;5.68;100.00;99754.19;4437190;32;20133;-72
2023/01/03 06:56:00;;;;;;;281.83;21.00;;;;;;;5.63;100.00;99757.03;4423094;32;20094;-72
2023/01/03 06:58:27;;;;;;;273.23;23.55;;;;;;;5.65;100.00;99756.94;4436906;32;20093;-72
2023/01/03 07:00:55;;;;;;;263.65;22.77;;;;;;;5.73;100.00;99751.34;4437262;32;20148;-72
2023/01/03 07:03:23;;;;;;;252.73;20.25;;;;;;;5.67;100.00;99760.28;4423442;32;20546;-72
2023/01/03 07:05:50;;;;;;;299.98;19.30;;;;;;;5.76;100.00;99752.00;4437426;32;20158;-73
2023/01/03 07:08:17;;;;;;;212.18;18.17;;;;;;;5.65;100.00;99759.56;4437029;32;20567;-72
2023/01/03 07:10:45;;;;;;;153.18;17.27;;;;;;;5.77;100.00;99758.88;4422876;32;20443;-72
2023/01/03 07:15:58;;;;;;;128.80;15.60;;;;;;;5.78;100.00;99763.16;4421670;32;20073;-72
2023/01/03 07:18:25;;;;;;;152.98;18.50;;;;;;;5.80;100.00;99769.12;4421301;32;20128;-72
2023/01/03 07:20:53;;;;;;;116.90;17.12;;;;;;;5.81;100.00;99770.81;4423438;32;20450;-72
2023/01/03 07:23:20;;;;;;;70.70;14.98;;;;;;;6.00;100.00;99785.47;4438740;32;20132;-72
2023/01/03 07:25:47;;;;;;;58.10;17.73;;;;;;;6.11;100.00;99783.09;4439175;32;20374;-73
2023/01/03 07:28:15;;;;;;;51.13;13.68;;;;;;;6.06;100.00;99779.91;4439231;32;20207;-72
2023/01/03 07:30:44;;;;;;;52.70;13.07;;;;;;;6.24;100.00;99792.81;4439317;32;20135;-72
2023/01/03 07:33:13;;;;;;;48.17;12.75;;;;;;;6.33;100.00;99784.53;4439085;32;20603;-72
2023/01/03 07:35:41;;;;;;;56.60;11.98;;;;;;;6.44;100.00;99792.56;4439154;32;20093;-72
2023/01/03 07:38:10;;;;;;;59.63;13.48;;;;;;;6.32;100.00;99796.69;4438924;32;20177;-72
2023/01/03 07:40:38;;;;;;;33.90;11.27;;;;;;;6.17;100.00;99787.97;4439023;32;20528;-72
2023/01/03 07:45:50;;;;;;;40.35;10.85;;;;;;;6.35;100.00;99793.91;4439038;32;20458;-72
2023/01/03 07:48:18;;;;;;;47.22;10.85;;;;;;;6.33;100.00;99794.94;4438919;32;20098;-72
2023/01/03 07:50:45;;;;;;;32.05;12.07;;;;;;;6.38;100.00;99803.34;4439144;32;20478;-72
2023/01/03 07:53:15;;;;;;;34.30;10.38;;;;;;;6.41;100.00;99810.13;4439009;32;20085;-73
2023/01/03 07:55:46;;;;;;;34.72;11.57;;;;;;;6.25;100.00;99807.53;4438712;32;20121;-73
2023/01/03 07:58:15;;;;;;;27.42;10.65;;;;;;;6.36;100.00;99807.78;4439130;32;20115;-73
2023/01/03 08:00:42;;;;;;;33.75;11.95;;;;;;;6.32;100.00;99814.09;4438654;32;20107;-74
2023/01/03 08:03:09;;;;;;;45.15;11.80;;;;;;;6.35;100.00;99816.50;4439223;32;20155;-75
2023/01/03 08:05:37;;;;;;;99.32;16.30;;;;;;;6.37;100.00;99819.88;4439021;32;20094;-73
2023/01/03 08:08:05;;;;;;;75.30;12.90;;;;;;;6.30;100.00;99815.91;4438966;32;20508;-73
2023/01/03 08:13:18;;;;;;;87.00;15.85;;;;;;;6.30;100.00;99823.72;4423649;32;20092;-74
2023/01/03 08:15:54;;;;;;;110.78;15.13;;;;;;;6.32;100.00;99822.72;4423375;32;20148;-74
2023/01/03 08:18:26;;;;;;;55.72;12.18;;;;;;;6.25;100.00;99829.19;4409647;32;20106;-73
2023/01/03 08:20:55;;;;;;;118.70;14.02;;;;;;;6.32;100.00;99821.88;4425239;32;20114;-73
2023/01/03 08:23:23;;;;;;;94.68;16.00;;;;;;;6.37;100.00;99835.47;4438646;32;20111;-73
2023/01/03 08:25:51;;;;;;;60.20;12.02;;;;;;;6.45;100.00;99832.44;4438800;32;20139;-72
2023/01/03 08:28:18;;;;;;;103.68;13.82;;;;;;;6.43;100.00;99824.72;4438798;32;20165;-73
2023/01/03 08:30:47;;;;;;;127.18;14.85;;;;;;;6.42;100.00;99828.28;4439030;32;20096;-73
2023/01/03 08:33:16;;;;;;;101.15;16.55;;;;;;;6.50;100.00;99836.50;4424445;32;20111;-74
2023/01/03 08:36:03;;;;;;;82.10;14.48;;;;;;;6.53;100.00;99832.87;4424682;32;20227;-75
2023/01/03 08:38:42;;;;;;;42.38;11.35;;;;;;;6.64;100.00;99834.88;4424853;32;20169;-75
2023/01/03 08:41:10;;;;;;;63.47;16.55;;;;;;;6.71;100.00;99839.66;4424908;32;20093;-76
2023/01/03 08:43:39;;;;;;;68.85;14.70;;;;;;;6.64;100.00;99837.50;4424799;32;20173;-73
2023/01/03 08:46:10;;;;;;;57.13;14.00;;;;;;;6.64;100.00;99853.12;4438565;32;20109;-73
2023/01/03 08:48:37;;;;;;;56.60;14.30;;;;;;;6.73;100.00;99850.00;4425179;32;20630;-73
2023/01/03 08:51:05;;;;;;;35.65;13.98;;;;;;;6.77;100.00;99848.91;4438531;32;20108;-74
2023/01/03 08:53:32;;;;;;;38.05;14.52;;;;;;;6.79;100.00;99847.03;4438661;32;20165;-77
2023/01/03 08:55:59;;;;;;;30.92;14.13;;;;;;;6.83;100.00;99856.37;4437975;32;20113;-74
2023/01/03 08:58:26;;;;;;;28.87;13.48;;;;;;;6.84;100.00;99850.22;4438555;32;20136;-74
2023/01/03 09:00:53;;;;;;;31.40;14.57;;;;;;;6.88;100.00;99859.53;4438263;32;20555;-73
2023/01/03 09:03:20;;;;;;;33.42;14.65;;;;;;;6.89;100.00;99853.41;4438481;32;20161;-73
2023/01/03 09:05:48;;;;;;;31.62;14.98;;;;;;;6.74;100.00;99864.69;4438356;32;20094;-73
2023/01/03 09:08:17;;;;;;;30.67;14.18;;;;;;;6.96;100.00;99859.09;4438432;32;20105;-74
2023/01/03 09:10:45;;;;;;;35.33;14.15;;;;;;;7.14;100.00;99856.37;4424038;32;20633;-73
2023/01/03 09:13:13;;;;;;;41.50;15.65;;;;;;;7.20;100.00;99846.44;4423099;32;20093;-74
2023/01/03 09:15:41;;;;;;;35.15;14.73;;;;;;;7.28;100.00;99854.66;4422800;32;20176;-73
2023/01/03 09:18:08;;;;;;;33.65;14.60;;;;;;;7.38;100.00;99849.75;4423360;32;20125;-73
2023/01/03 09:20:35;;;;;;;34.22;15.05;;;;;;;7.59;100.00;99854.63;4422836;32;20158;-74
2023/01/03 09:23:02;;;;;;;34.60;14.35;;;;;;;7.48;100.00;99863.09;4438259;32;20097;-74
2023/01/03 09:25:29;;;;;;;35.83;15.02;;;;;;;7.49;100.00;99867.34;4437882;32;20097;-74
2023/01/03 09:28:03;;;;;;;38.58;16.02;;;;;;;7.57;100.00;99857.34;4438410;32;20085;-74
2023/01/03 09:30:30;;;;;;;37.60;15.77;;;;;;;7.71;100.00;99864.31;4438274;32;20143;-73
2023/01/03 09:32:57;;;;;;;35.63;16.20;;;;;;;7.84;100.00;99869.63;4438262;32;20097;-73
2023/01/03 09:35:24;;;;;;;31.80;14.55;;;;;;;7.97;100.00;99872.34;4438157;32;20167;-74
2023/01/03 09:37:51;;;;;;;39.88;15.65;;;;;;;8.10;100.00;99867.22;4438232;32;20092;-74
2023/01/03 09:40:18;;;;;;;30.42;14.40;;;;;;;7.92;100.00;99862.19;4438149;32;20535;-74
2023/01/03 09:45:33;;;;;;;34.85;15.32;;;;;;;7.98;100.00;99864.44;4425387;32;20157;-74
2023/01/03 09:48:02;;;;;;;34.17;15.18;;;;;;;7.93;100.00;99870.84;4438122;32;20119;-75
2023/01/03 09:50:32;;;;;;;37.63;15.45;;;;;;;8.19;100.00;99866.66;4437870;32;20116;-73
2023/01/03 10:05:27;;;;;;;29.67;13.73;;;;;;;8.95;100.00;99869.75;4374929;32;20579;-73
2023/01/03 10:08:04;;;;;;;30.20;13.50;;;;;;;8.96;100.00;99853.16;4374949;32;20233;-72
2023/01/03 10:11:05;;;;;;;36.05;14.87;;;;;;;8.93;100.00;99862.00;4349974;32;20531;-74
2023/01/03 10:14:07;;;;;;;33.90;14.57;;;;;;;8.85;100.00;99861.69;4289157;33;20126;-73
2023/01/03 10:16:47;;;;;;;31.48;14.25;;;;;;;8.87;100.00;99857.19;4300770;33;20096;-74
2023/01/03 10:19:27;;;;;;;30.30;14.23;;;;;;;8.92;100.00;99862.97;4289118;33;20625;-75
2023/01/03 10:22:05;;;;;;;38.70;15.35;;;;;;;9.02;100.00;99845.75;4308500;33;20167;-75
2023/01/03 10:24:49;;;;;;;35.05;14.85;;;;;;;8.81;100.00;99853.22;4315224;33;20477;-74
2023/01/03 10:27:23;;;;;;;36.55;14.55;;;;;;;8.63;100.00;99851.75;4315662;33;20158;-76
2023/01/03 10:29:54;;;;;;;35.50;15.15;;;;;;;8.42;100.00;99846.09;4325787;32;20484;-73
2023/01/03 10:32:57;;;;;;;35.35;15.10;;;;;;;8.67;100.00;99846.25;4359539;32;20282;-76
2023/01/03 10:35:29;;;;;;;32.00;14.35;;;;;;;8.54;100.00;99855.81;4300763;33;20709;-74
2023/01/03 10:38:00;;;;;;;35.35;14.10;;;;;;;8.51;100.00;99845.56;4300541;33;20142;-73
2023/01/03 10:40:33;;;;;;;34.92;13.98;;;;;;;8.62;100.00;99843.09;4300861;33;20415;-73
2023/01/03 10:43:19;;;;;;;31.02;14.77;;;;;;;8.73;100.00;99839.78;4300347;33;20175;-73
2023/01/03 10:45:59;;;;;;;34.22;15.30;;;;;;;8.84;100.00;99836.47;4300473;33;20160;-73
2023/01/03 10:48:39;;;;;;;29.40;13.32;;;;;;;8.61;100.00;99846.63;4300387;33;21198;-72
2023/01/03 10:51:31;;;;;;;32.47;14.00;;;;;;;8.90;100.00;99832.63;4370477;32;20435;-72
2023/01/03 10:54:22;;;;;;;31.92;14.80;;;;;;;8.68;100.00;99837.47;4363014;32;20190;-72
2023/01/03 10:56:50;;;;;;;35.20;14.30;;;;;;;8.75;100.00;99831.84;4362865;32;20087;-72
2023/01/03 10:59:22;;;;;;;33.83;14.70;;;;;;;8.97;100.00;99826.91;4376188;32;20152;-72
2023/01/03 11:02:06;;;;;;;31.80;14.18;;;;;;;9.04;100.00;99838.66;4375986;32;20091;-72
2023/01/03 11:04:34;;;;;;;;;;;;;;;8.91;100.00;99834.31;4364137;32;20122;-73
2023/01/03 11:07:11;;;;;;;32.08;12.57;;;;;;;8.86;100.00;99825.00;4391172;32;20068;-72
2023/01/03 11:10:00;;;;;;;34.67;14.32;;;;;;;8.86;100.00;99824.19;4391237;32;20182;-71
2023/01/03 11:12:35;;;;;;;30.73;13.62;;;;;;;9.03;100.00;99823.06;4409136;32;20444;-73
2023/01/03 11:15:31;;;;;;;30.37;13.57;;;;;;;8.90;100.00;99817.78;4424062;32;20196;-73
2023/01/03 11:18:16;;;;;;;30.65;13.40;;;;;;;8.78;100.00;99822.06;4423612;32;20160;-75
2023/01/03 11:21:00;;;;;;;27.08;13.10;;;;;;;8.93;100.00;99829.81;4425067;32;20085;-76
2023/01/03 11:24:05;;;;;;;34.30;14.32;;;;;;;9.03;100.00;99825.69;4424906;32;20540;-74
2023/01/03 11:26:51;;;;;;;27.17;11.93;;;;;;;8.96;100.00;99822.66;4438614;32;20156;-74
2023/01/03 11:29:40;;;;;;;29.75;12.80;;;;;;;8.91;100.00;99818.66;4439355;32;20093;-75
2023/01/03 11:32:10;;;;;;;33.55;13.23;;;;;;;8.90;100.00;99815.19;4439044;32;20123;-74
2023/01/03 11:34:46;;;;;;;26.77;12.13;;;;;;;8.91;100.00;99821.25;4439237;32;20089;-74
2023/01/03 11:37:39;;;;;;;30.75;12.30;;;;;;;8.83;100.00;99819.16;4439161;32;20085;-74
2023/01/03 11:40:17;;;;;;;29.63;12.93;;;;;;;8.51;100.00;99825.50;4425276;32;20097;-75
2023/01/03 11:42:50;;;;;;;26.50;13.10;;;;;;;8.75;100.00;99813.56;4438795;32;20111;-74
2023/01/03 11:45:33;;;;;;;29.48;12.60;;;;;;;8.52;100.00;99816.75;4439039;32;20089;-74
2023/01/03 11:48:13;;;;;;;31.57;12.17;;;;;;;8.58;100.00;99810.25;4438825;32;20165;-74
2023/01/03 11:50:46;;;;;;;29.25;13.35;;;;;;;8.63;100.00;99810.81;4439127;32;20169;-75
2023/01/03 11:53:34;;;;;;;29.85;12.30;;;;;;;8.80;100.00;99816.75;4425056;32;20132;-74
2023/01/03 11:56:13;;;;;;;25.23;11.07;;;;;;;8.79;100.00;99807.22;4438927;32;20098;-75
2023/01/03 11:59:01;;;;;;;31.40;12.30;;;;;;;8.58;100.00;99807.66;4438960;32;20557;-75
2023/01/03 12:01:35;;;;;;;27.40;12.70;;;;;;;8.66;100.00;99808.00;4438782;32;20151;-75
2023/01/03 12:04:24;;;;;;;28.80;12.05;;;;;;;8.73;100.00;99800.59;4425442;32;20105;-75
2023/01/03 12:07:16;;;;;;;25.80;11.75;;;;;;;8.80;100.00;99809.72;4438768;32;20106;-74
2023/01/03 12:10:12;;;;;;;28.48;12.73;;;;;;;8.84;100.00;99805.97;4417591;32;20124;-74
2023/01/03 12:12:59;;;;;;;25.02;11.93;;;;;;;8.76;100.00;99807.41;4423450;32;20568;-74
2023/01/03 12:15:49;;;;;;;26.42;12.25;;;;;;;8.62;100.00;99805.69;4409843;32;20094;-75
2023/01/03 12:18:41;;;;;;;30.58;13.05;;;;;;;8.72;100.00;99796.34;4409378;32;20101;-74
2023/01/03 12:21:35;;;;;;;29.15;11.65;;;;;;;8.76;100.00;99802.19;4427257;32;20183;-74
2023/01/03 12:24:14;;;;;;;26.80;11.23;;;;;;;8.73;100.00;99802.41;4438740;32;20101;-74
2023/01/03 12:26:47;;;;;;;27.42;11.80;;;;;;;8.65;100.00;99797.66;4438816;32;20085;-74
2023/01/03 12:29:20;;;;;;;27.17;11.85;;;;;;;8.81;100.00;99789.66;4425131;32;20101;-74
2023/01/03 12:31:53;;;;;;;25.83;11.20;;;;;;;8.75;100.00;99792.66;4425168;32;20097;-74
2023/01/03 12:34:28;;;;;;;26.33;11.88;;;;;;;8.66;100.00;99794.09;4424731;32;20105;-74
2023/01/03 12:37:02;;;;;;;31.67;13.05;;;;;;;8.56;100.00;99806.94;4424775;32;20517;-75
2023/01/03 12:39:55;;;;;;;28.43;12.33;;;;;;;8.61;100.00;99797.00;4438545;32;20116;-74
2023/01/03 12:42:36;;;;;;;28.60;12.88;;;;;;;8.59;100.00;99806.72;4425057;32;20203;-75
2023/01/03 12:45:06;;;;;;;29.48;12.32;;;;;;;8.63;100.00;99800.38;4424674;32;20085;-75
2023/01/03 12:47:55;;;;;;;31.00;13.68;;;;;;;8.44;100.00;99807.72;4438602;32;20090;-74